sensor_id;sensor_type;location;lat;lon;timestamp;temperature;humidity
6178;DHT22;3122;48.208;11.174;2022-11-14T00:00:08;4.60;88.00
6178;DHT22;3122;48.208;11.174;2022-11-14T00:05:09;4.50;87.20
6178;DHT22;3122;48.208;11.174;2022-11-14T00:10:10;4.50;87.90
6178;DHT22;3122;48.208;11.174;2022-11-14T00:15:12;4.50;87.10
6178;DHT22;3122;48.208;11.174;2022-11-14T00:20:13;4.50;87.10
6178;DHT22;3122;48.208;11.174;2022-11-14T00:25:13;4.50;86.90
6178;DHT22;3122;48.208;11.174;2022-11-14T00:30:14;4.40;85.70
6178;DHT22;3122;48.208;11.174;2022-11-14T00:35:15;4.30;84.90
6178;DHT22;3122;48.208;11.174;2022-11-14T00:40:15;4.20;84.40
6178;DHT22;3122;48.208;11.174;2022-11-14T00:45:16;4.20;83.00
6178;DHT22;3122;48.208;11.174;2022-11-14T00:50:17;4.00;81.10
6178;DHT22;3122;48.208;11.174;2022-11-14T00:55:17;3.90;80.20
6178;DHT22;3122;48.208;11.174;2022-11-14T01:00:18;3.70;79.80
6178;DHT22;3122;48.208;11.174;2022-11-14T01:05:18;3.80;79.80
6178;DHT22;3122;48.208;11.174;2022-11-14T01:10:20;3.40;79.20
6178;DHT22;3122;48.208;11.174;2022-11-14T01:15:20;3.30;78.40
6178;DHT22;3122;48.208;11.174;2022-11-14T01:20:21;3.30;79.00
6178;DHT22;3122;48.208;11.174;2022-11-14T01:25:22;3.30;78.50
6178;DHT22;3122;48.208;11.174;2022-11-14T01:30:22;3.30;79.30
6178;DHT22;3122;48.208;11.174;2022-11-14T01:35:23;3.30;78.40
6178;DHT22;3122;48.208;11.174;2022-11-14T01:40:24;3.30;78.30
6178;DHT22;3122;48.208;11.174;2022-11-14T01:50:52;3.10;77.60
6178;DHT22;3122;48.208;11.174;2022-11-14T01:55:56;3.20;78.40
6178;DHT22;3122;48.208;11.174;2022-11-14T02:00:57;3.10;77.30
6178;DHT22;3122;48.208;11.174;2022-11-14T02:06:00;3.10;78.00
6178;DHT22;3122;48.208;11.174;2022-11-14T02:11:02;3.20;78.40
6178;DHT22;3122;48.208;11.174;2022-11-14T02:16:03;3.10;78.20
6178;DHT22;3122;48.208;11.174;2022-11-14T02:21:04;3.20;78.60
6178;DHT22;3122;48.208;11.174;2022-11-14T02:26:04;3.20;78.80
6178;DHT22;3122;48.208;11.174;2022-11-14T02:31:05;3.40;79.20
6178;DHT22;3122;48.208;11.174;2022-11-14T02:36:05;3.50;79.50
6178;DHT22;3122;48.208;11.174;2022-11-14T02:41:06;3.50;79.10
6178;DHT22;3122;48.208;11.174;2022-11-14T02:46:07;3.40;77.90
6178;DHT22;3122;48.208;11.174;2022-11-14T02:51:07;3.30;77.90
6178;DHT22;3122;48.208;11.174;2022-11-14T02:56:08;3.30;78.40
6178;DHT22;3122;48.208;11.174;2022-11-14T03:01:08;3.40;79.00
6178;DHT22;3122;48.208;11.174;2022-11-14T03:06:09;3.40;78.10
6178;DHT22;3122;48.208;11.174;2022-11-14T03:11:09;3.30;77.70
6178;DHT22;3122;48.208;11.174;2022-11-14T03:16:11;3.30;78.00
6178;DHT22;3122;48.208;11.174;2022-11-14T03:21:18;3.30;77.50
6178;DHT22;3122;48.208;11.174;2022-11-14T03:26:18;3.10;77.40
6178;DHT22;3122;48.208;11.174;2022-11-14T03:31:19;3.20;78.00
6178;DHT22;3122;48.208;11.174;2022-11-14T03:36:20;3.00;76.90
6178;DHT22;3122;48.208;11.174;2022-11-14T03:41:20;3.00;78.30
6178;DHT22;3122;48.208;11.174;2022-11-14T03:46:21;3.00;77.60
6178;DHT22;3122;48.208;11.174;2022-11-14T03:51:22;3.00;78.00
6178;DHT22;3122;48.208;11.174;2022-11-14T03:56:22;3.10;78.40
6178;DHT22;3122;48.208;11.174;2022-11-14T04:01:23;3.10;78.00
6178;DHT22;3122;48.208;11.174;2022-11-14T04:06:23;3.20;76.70
6178;DHT22;3122;48.208;11.174;2022-11-14T04:11:24;2.90;75.50
6178;DHT22;3122;48.208;11.174;2022-11-14T04:16:24;3.00;75.50
6178;DHT22;3122;48.208;11.174;2022-11-14T04:21:25;3.00;75.80
6178;DHT22;3122;48.208;11.174;2022-11-14T04:26:26;3.10;75.20
6178;DHT22;3122;48.208;11.174;2022-11-14T04:31:26;3.10;75.50
6178;DHT22;3122;48.208;11.174;2022-11-14T04:36:27;3.20;76.00
6178;DHT22;3122;48.208;11.174;2022-11-14T04:41:27;3.30;76.00
6178;DHT22;3122;48.208;11.174;2022-11-14T04:46:28;3.40;76.80
6178;DHT22;3122;48.208;11.174;2022-11-14T04:51:28;3.40;76.50
6178;DHT22;3122;48.208;11.174;2022-11-14T04:56:29;3.40;76.70
6178;DHT22;3122;48.208;11.174;2022-11-14T05:01:29;3.40;77.10
6178;DHT22;3122;48.208;11.174;2022-11-14T05:06:30;3.40;77.40
6178;DHT22;3122;48.208;11.174;2022-11-14T05:11:30;3.40;77.70
6178;DHT22;3122;48.208;11.174;2022-11-14T05:16:31;3.40;78.20
6178;DHT22;3122;48.208;11.174;2022-11-14T05:21:32;3.40;78.10
6178;DHT22;3122;48.208;11.174;2022-11-14T05:26:32;3.50;78.10
6178;DHT22;3122;48.208;11.174;2022-11-14T05:31:33;3.50;77.80
6178;DHT22;3122;48.208;11.174;2022-11-14T05:36:33;3.50;77.40
6178;DHT22;3122;48.208;11.174;2022-11-14T05:41:37;3.50;76.40
6178;DHT22;3122;48.208;11.174;2022-11-14T05:46:37;3.40;76.40
6178;DHT22;3122;48.208;11.174;2022-11-14T05:51:38;3.40;76.40
6178;DHT22;3122;48.208;11.174;2022-11-14T05:56:39;3.30;76.30
6178;DHT22;3122;48.208;11.174;2022-11-14T06:01:39;3.30;76.20
6178;DHT22;3122;48.208;11.174;2022-11-14T06:06:40;3.30;76.30
6178;DHT22;3122;48.208;11.174;2022-11-14T06:11:40;3.30;76.20
6178;DHT22;3122;48.208;11.174;2022-11-14T06:16:41;3.20;76.10
6178;DHT22;3122;48.208;11.174;2022-11-14T06:21:41;3.30;75.60
6178;DHT22;3122;48.208;11.174;2022-11-14T06:26:42;3.20;74.40
6178;DHT22;3122;48.208;11.174;2022-11-14T06:31:42;3.10;74.60
6178;DHT22;3122;48.208;11.174;2022-11-14T06:36:43;3.10;74.40
6178;DHT22;3122;48.208;11.174;2022-11-14T06:41:43;3.00;74.10
6178;DHT22;3122;48.208;11.174;2022-11-14T06:46:44;3.00;73.80
6178;DHT22;3122;48.208;11.174;2022-11-14T06:51:45;3.00;74.50
6178;DHT22;3122;48.208;11.174;2022-11-14T06:56:45;2.90;74.90
6178;DHT22;3122;48.208;11.174;2022-11-14T07:01:46;2.90;74.90
6178;DHT22;3122;48.208;11.174;2022-11-14T07:06:46;2.80;74.40
6178;DHT22;3122;48.208;11.174;2022-11-14T07:11:47;2.90;74.90
6178;DHT22;3122;48.208;11.174;2022-11-14T07:16:47;3.10;75.20
6178;DHT22;3122;48.208;11.174;2022-11-14T07:21:48;3.10;74.60
6178;DHT22;3122;48.208;11.174;2022-11-14T07:26:49;3.10;74.20
6178;DHT22;3122;48.208;11.174;2022-11-14T07:31:49;3.20;74.70
6178;DHT22;3122;48.208;11.174;2022-11-14T07:36:50;3.10;74.10
6178;DHT22;3122;48.208;11.174;2022-11-14T07:41:51;3.00;74.00
6178;DHT22;3122;48.208;11.174;2022-11-14T07:46:51;3.00;74.40
6178;DHT22;3122;48.208;11.174;2022-11-14T07:51:52;3.20;75.20
6178;DHT22;3122;48.208;11.174;2022-11-14T07:56:52;3.10;74.80
6178;DHT22;3122;48.208;11.174;2022-11-14T08:01:53;3.10;74.00
6178;DHT22;3122;48.208;11.174;2022-11-14T08:06:53;3.20;73.60
6178;DHT22;3122;48.208;11.174;2022-11-14T08:11:54;3.10;73.20
6178;DHT22;3122;48.208;11.174;2022-11-14T08:16:54;3.30;73.70
6178;DHT22;3122;48.208;11.174;2022-11-14T08:21:55;3.20;73.80
6178;DHT22;3122;48.208;11.174;2022-11-14T08:26:55;3.30;73.60
6178;DHT22;3122;48.208;11.174;2022-11-14T08:31:56;3.40;74.20
6178;DHT22;3122;48.208;11.174;2022-11-14T08:36:57;3.40;74.20
6178;DHT22;3122;48.208;11.174;2022-11-14T08:41:57;3.50;74.30
6178;DHT22;3122;48.208;11.174;2022-11-14T08:46:58;3.70;74.80
6178;DHT22;3122;48.208;11.174;2022-11-14T08:51:59;3.80;74.70
6178;DHT22;3122;48.208;11.174;2022-11-14T08:57:00;3.70;73.10
6178;DHT22;3122;48.208;11.174;2022-11-14T09:02:00;3.90;71.60
6178;DHT22;3122;48.208;11.174;2022-11-14T09:07:01;4.00;67.60
6178;DHT22;3122;48.208;11.174;2022-11-14T09:12:02;3.70;67.90
6178;DHT22;3122;48.208;11.174;2022-11-14T09:17:02;3.80;69.40
6178;DHT22;3122;48.208;11.174;2022-11-14T09:22:03;3.80;71.00
6178;DHT22;3122;48.208;11.174;2022-11-14T09:27:03;3.80;71.60
6178;DHT22;3122;48.208;11.174;2022-11-14T09:32:04;4.10;73.00
6178;DHT22;3122;48.208;11.174;2022-11-14T09:37:04;4.30;74.20
6178;DHT22;3122;48.208;11.174;2022-11-14T09:47:39;4.40;74.30
6178;DHT22;3122;48.208;11.174;2022-11-14T09:52:42;4.40;73.50
6178;DHT22;3122;48.208;11.174;2022-11-14T09:57:47;4.50;73.80
6178;DHT22;3122;48.208;11.174;2022-11-14T10:03:30;4.50;72.90
6178;DHT22;3122;48.208;11.174;2022-11-14T10:24:50;5.00;72.00
6178;DHT22;3122;48.208;11.174;2022-11-14T10:30:00;5.10;70.20
6178;DHT22;3122;48.208;11.174;2022-11-14T10:35:03;5.30;69.80
6178;DHT22;3122;48.208;11.174;2022-11-14T10:40:15;5.40;69.80
6178;DHT22;3122;48.208;11.174;2022-11-14T10:51:02;5.60;71.10
6178;DHT22;3122;48.208;11.174;2022-11-14T10:56:04;5.60;72.30
6178;DHT22;3122;48.208;11.174;2022-11-14T11:01:31;5.90;73.60
6178;DHT22;3122;48.208;11.174;2022-11-14T11:06:31;6.30;74.40
6178;DHT22;3122;48.208;11.174;2022-11-14T11:11:32;6.70;73.60
6178;DHT22;3122;48.208;11.174;2022-11-14T11:16:32;7.00;71.50
6178;DHT22;3122;48.208;11.174;2022-11-14T11:21:47;7.30;70.60
6178;DHT22;3122;48.208;11.174;2022-11-14T11:26:47;7.60;70.90
6178;DHT22;3122;48.208;11.174;2022-11-14T11:31:53;7.90;71.80
6178;DHT22;3122;48.208;11.174;2022-11-14T11:37:20;8.20;62.60
6178;DHT22;3122;48.208;11.174;2022-11-14T11:42:45;8.60;56.50
6178;DHT22;3122;48.208;11.174;2022-11-14T11:48:00;8.70;59.30
6178;DHT22;3122;48.208;11.174;2022-11-14T11:53:21;8.70;59.00
6178;DHT22;3122;48.208;11.174;2022-11-14T11:58:47;8.80;58.80
6178;DHT22;3122;48.208;11.174;2022-11-14T12:03:49;8.80;49.20
6178;DHT22;3122;48.208;11.174;2022-11-14T12:09:21;8.90;47.40
6178;DHT22;3122;48.208;11.174;2022-11-14T12:14:45;9.00;45.10
6178;DHT22;3122;48.208;11.174;2022-11-14T12:25:07;9.50;36.50
6178;DHT22;3122;48.208;11.174;2022-11-14T12:30:20;9.50;34.40
6178;DHT22;3122;48.208;11.174;2022-11-14T12:35:29;9.50;34.20
6178;DHT22;3122;48.208;11.174;2022-11-14T12:40:31;9.40;34.60
6178;DHT22;3122;48.208;11.174;2022-11-14T12:50:42;9.50;35.30
6178;DHT22;3122;48.208;11.174;2022-11-14T13:16:49;9.50;42.80
6178;DHT22;3122;48.208;11.174;2022-11-14T13:27:32;9.40;44.20
6178;DHT22;3122;48.208;11.174;2022-11-14T13:53:29;9.30;45.30
6178;DHT22;3122;48.208;11.174;2022-11-14T13:59:08;9.30;45.30
6178;DHT22;3122;48.208;11.174;2022-11-14T14:04:46;9.30;46.30
6178;DHT22;3122;48.208;11.174;2022-11-14T14:15:33;9.20;49.80
6178;DHT22;3122;48.208;11.174;2022-11-14T14:31:34;9.00;51.40
6178;DHT22;3122;48.208;11.174;2022-11-14T14:36:35;8.90;51.90
6178;DHT22;3122;48.208;11.174;2022-11-14T14:41:36;8.80;54.10
6178;DHT22;3122;48.208;11.174;2022-11-14T14:46:37;8.80;53.90
6178;DHT22;3122;48.208;11.174;2022-11-14T14:51:37;8.80;54.20
6178;DHT22;3122;48.208;11.174;2022-11-14T14:56:39;8.70;54.10
6178;DHT22;3122;48.208;11.174;2022-11-14T15:01:51;8.70;54.60
6178;DHT22;3122;48.208;11.174;2022-11-14T15:06:53;8.70;55.10
6178;DHT22;3122;48.208;11.174;2022-11-14T15:11:58;8.70;57.00
6178;DHT22;3122;48.208;11.174;2022-11-14T15:16:59;8.60;56.80
6178;DHT22;3122;48.208;11.174;2022-11-14T15:27:18;8.50;56.40
6178;DHT22;3122;48.208;11.174;2022-11-14T15:32:22;8.40;56.60
6178;DHT22;3122;48.208;11.174;2022-11-14T15:37:23;8.30;57.10
6178;DHT22;3122;48.208;11.174;2022-11-14T15:47:33;8.30;57.00
6178;DHT22;3122;48.208;11.174;2022-11-14T15:52:47;8.30;56.90
6178;DHT22;3122;48.208;11.174;2022-11-14T15:57:49;8.20;57.40
6178;DHT22;3122;48.208;11.174;2022-11-14T16:02:55;8.10;58.40
6178;DHT22;3122;48.208;11.174;2022-11-14T16:07:56;8.10;58.70
6178;DHT22;3122;48.208;11.174;2022-11-14T16:12:57;8.10;59.80
6178;DHT22;3122;48.208;11.174;2022-11-14T16:17:57;8.00;59.30
6178;DHT22;3122;48.208;11.174;2022-11-14T16:22:58;8.00;59.40
6178;DHT22;3122;48.208;11.174;2022-11-14T16:27:58;8.00;59.80
6178;DHT22;3122;48.208;11.174;2022-11-14T16:32:59;7.90;60.00
6178;DHT22;3122;48.208;11.174;2022-11-14T16:37:59;7.90;60.20
6178;DHT22;3122;48.208;11.174;2022-11-14T16:43:00;7.90;60.20
6178;DHT22;3122;48.208;11.174;2022-11-14T16:48:01;7.80;60.30
6178;DHT22;3122;48.208;11.174;2022-11-14T16:53:01;7.70;60.00
6178;DHT22;3122;48.208;11.174;2022-11-14T16:58:02;7.60;59.70
6178;DHT22;3122;48.208;11.174;2022-11-14T17:03:08;7.50;60.60
6178;DHT22;3122;48.208;11.174;2022-11-14T17:08:09;7.40;59.90
6178;DHT22;3122;48.208;11.174;2022-11-14T17:13:12;7.30;59.30
6178;DHT22;3122;48.208;11.174;2022-11-14T17:18:13;7.20;59.40
6178;DHT22;3122;48.208;11.174;2022-11-14T17:23:13;7.20;59.50
6178;DHT22;3122;48.208;11.174;2022-11-14T17:28:14;7.10;59.50
6178;DHT22;3122;48.208;11.174;2022-11-14T17:33:14;7.00;59.60
6178;DHT22;3122;48.208;11.174;2022-11-14T17:38:15;7.00;60.40
6178;DHT22;3122;48.208;11.174;2022-11-14T17:43:15;6.90;60.20
6178;DHT22;3122;48.208;11.174;2022-11-14T17:48:16;6.80;60.30
6178;DHT22;3122;48.208;11.174;2022-11-14T17:53:17;6.70;59.60
6178;DHT22;3122;48.208;11.174;2022-11-14T17:58:18;6.70;59.70
6178;DHT22;3122;48.208;11.174;2022-11-14T18:03:19;6.70;59.80
6178;DHT22;3122;48.208;11.174;2022-11-14T18:08:20;6.60;59.40
6178;DHT22;3122;48.208;11.174;2022-11-14T18:13:20;6.60;59.70
6178;DHT22;3122;48.208;11.174;2022-11-14T18:18:21;6.40;58.80
6178;DHT22;3122;48.208;11.174;2022-11-14T18:23:21;6.40;59.30
6178;DHT22;3122;48.208;11.174;2022-11-14T18:28:22;6.20;58.60
6178;DHT22;3122;48.208;11.174;2022-11-14T18:33:22;6.10;58.50
6178;DHT22;3122;48.208;11.174;2022-11-14T18:38:23;6.00;58.50
6178;DHT22;3122;48.208;11.174;2022-11-14T18:43:24;5.90;58.10
6178;DHT22;3122;48.208;11.174;2022-11-14T18:48:24;5.90;57.80
6178;DHT22;3122;48.208;11.174;2022-11-14T18:53:29;5.80;57.50
6178;DHT22;3122;48.208;11.174;2022-11-14T18:58:30;5.70;57.40
6178;DHT22;3122;48.208;11.174;2022-11-14T19:03:30;5.70;57.30
6178;DHT22;3122;48.208;11.174;2022-11-14T19:08:31;5.60;57.00
6178;DHT22;3122;48.208;11.174;2022-11-14T19:13:32;5.60;56.80
6178;DHT22;3122;48.208;11.174;2022-11-14T19:18:32;5.50;55.90
6178;DHT22;3122;48.208;11.174;2022-11-14T19:23:33;5.50;55.60
6178;DHT22;3122;48.208;11.174;2022-11-14T19:28:34;5.40;55.30
6178;DHT22;3122;48.208;11.174;2022-11-14T19:33:37;5.30;55.30
6178;DHT22;3122;48.208;11.174;2022-11-14T19:38:38;5.30;55.00
6178;DHT22;3122;48.208;11.174;2022-11-14T19:43:39;5.20;54.80
6178;DHT22;3122;48.208;11.174;2022-11-14T19:48:40;5.10;54.30
6178;DHT22;3122;48.208;11.174;2022-11-14T19:53:41;5.10;54.50
6178;DHT22;3122;48.208;11.174;2022-11-14T19:58:44;5.10;53.80
6178;DHT22;3122;48.208;11.174;2022-11-14T20:08:52;5.00;53.00
6178;DHT22;3122;48.208;11.174;2022-11-14T20:13:54;5.00;52.10
6178;DHT22;3122;48.208;11.174;2022-11-14T20:18:57;4.90;50.80
6178;DHT22;3122;48.208;11.174;2022-11-14T20:23:57;4.80;49.80
6178;DHT22;3122;48.208;11.174;2022-11-14T20:28:58;4.80;49.10
6178;DHT22;3122;48.208;11.174;2022-11-14T20:33:59;4.70;48.70
6178;DHT22;3122;48.208;11.174;2022-11-14T20:38:59;4.70;49.20
6178;DHT22;3122;48.208;11.174;2022-11-14T20:44:00;4.70;49.00
6178;DHT22;3122;48.208;11.174;2022-11-14T20:49:02;4.60;48.70
6178;DHT22;3122;48.208;11.174;2022-11-14T20:54:03;4.70;49.60
6178;DHT22;3122;48.208;11.174;2022-11-14T20:59:04;4.60;48.50
6178;DHT22;3122;48.208;11.174;2022-11-14T21:04:06;4.60;48.00
6178;DHT22;3122;48.208;11.174;2022-11-14T21:09:08;4.60;46.40
6178;DHT22;3122;48.208;11.174;2022-11-14T21:14:10;4.50;45.10
6178;DHT22;3122;48.208;11.174;2022-11-14T21:19:10;4.40;45.80
6178;DHT22;3122;48.208;11.174;2022-11-14T21:24:11;4.40;45.70
6178;DHT22;3122;48.208;11.174;2022-11-14T21:29:12;4.30;45.60
6178;DHT22;3122;48.208;11.174;2022-11-14T21:34:15;4.30;45.70
6178;DHT22;3122;48.208;11.174;2022-11-14T21:39:17;4.20;44.60
6178;DHT22;3122;48.208;11.174;2022-11-14T21:44:17;4.20;45.70
6178;DHT22;3122;48.208;11.174;2022-11-14T21:49:18;4.20;45.70
6178;DHT22;3122;48.208;11.174;2022-11-14T21:54:19;4.10;45.60
6178;DHT22;3122;48.208;11.174;2022-11-14T21:59:19;4.00;45.90
6178;DHT22;3122;48.208;11.174;2022-11-14T22:04:25;4.00;47.00
6178;DHT22;3122;48.208;11.174;2022-11-14T22:09:26;4.10;46.00
6178;DHT22;3122;48.208;11.174;2022-11-14T22:14:29;4.00;46.00
6178;DHT22;3122;48.208;11.174;2022-11-14T22:19:30;4.00;45.30
6178;DHT22;3122;48.208;11.174;2022-11-14T22:24:31;4.00;45.30
6178;DHT22;3122;48.208;11.174;2022-11-14T22:29:31;3.80;43.90
6178;DHT22;3122;48.208;11.174;2022-11-14T22:34:32;3.80;43.80
6178;DHT22;3122;48.208;11.174;2022-11-14T22:39:32;3.70;44.00
6178;DHT22;3122;48.208;11.174;2022-11-14T22:44:33;3.70;45.10
6178;DHT22;3122;48.208;11.174;2022-11-14T22:49:33;3.70;46.40
6178;DHT22;3122;48.208;11.174;2022-11-14T22:54:34;3.70;45.60
6178;DHT22;3122;48.208;11.174;2022-11-14T22:59:34;3.60;46.20
6178;DHT22;3122;48.208;11.174;2022-11-14T23:04:35;3.70;46.80
6178;DHT22;3122;48.208;11.174;2022-11-14T23:09:36;3.60;45.90
6178;DHT22;3122;48.208;11.174;2022-11-14T23:14:36;3.70;45.20
6178;DHT22;3122;48.208;11.174;2022-11-14T23:19:37;3.60;45.30
6178;DHT22;3122;48.208;11.174;2022-11-14T23:24:37;3.70;44.70
6178;DHT22;3122;48.208;11.174;2022-11-14T23:29:38;3.60;44.10
6178;DHT22;3122;48.208;11.174;2022-11-14T23:34:38;3.60;43.70
6178;DHT22;3122;48.208;11.174;2022-11-14T23:39:39;3.50;44.00
6178;DHT22;3122;48.208;11.174;2022-11-14T23:44:39;3.70;45.20
6178;DHT22;3122;48.208;11.174;2022-11-14T23:49:40;3.90;47.00
6178;DHT22;3122;48.208;11.174;2022-11-14T23:54:40;4.20;49.20
6178;DHT22;3122;48.208;11.174;2022-11-14T23:59:41;4.10;47.60
